createdAt,value
2017-09-20T00:01:46.722Z,99.90
2017-09-20T00:04:15.042Z,99.90
2017-09-20T00:06:43.347Z,99.90
2017-09-20T00:09:11.668Z,99.90
2017-09-20T00:11:40.751Z,99.90
2017-09-20T00:14:09.054Z,99.90
2017-09-20T00:16:38.139Z,99.90
2017-09-20T00:19:06.449Z,99.90
2017-09-20T00:21:34.778Z,99.90
2017-09-20T00:24:03.075Z,99.90
2017-09-20T00:26:31.370Z,99.90
2017-09-20T00:28:59.663Z,99.90
2017-09-20T00:31:28.186Z,99.90
2017-09-20T00:33:56.484Z,99.90
2017-09-20T00:36:24.791Z,99.90
2017-09-20T00:38:53.875Z,99.90
2017-09-20T00:41:22.200Z,99.90
2017-09-20T00:43:50.494Z,99.90
2017-09-20T00:46:18.836Z,99.90
2017-09-20T00:48:47.138Z,99.90
2017-09-20T00:51:15.474Z,99.90
2017-09-20T00:53:43.784Z,99.90
2017-09-20T00:56:12.105Z,99.90
2017-09-20T00:58:40.502Z,99.90
2017-09-20T01:01:08.791Z,99.90
2017-09-20T01:03:37.079Z,99.90
2017-09-20T01:06:05.367Z,99.90
2017-09-20T01:08:34.423Z,99.90
2017-09-20T01:11:02.734Z,99.90
2017-09-20T01:13:31.046Z,99.90
2017-09-20T01:15:59.355Z,99.90
2017-09-20T01:18:28.411Z,99.90
2017-09-20T01:21:08.583Z,99.90
2017-09-20T01:23:36.979Z,99.90
2017-09-20T01:26:05.285Z,99.90
2017-09-20T01:28:33.579Z,99.90
2017-09-20T01:31:01.928Z,99.90
2017-09-20T01:33:30.267Z,99.90
2017-09-20T01:35:59.323Z,99.90
2017-09-20T01:38:27.643Z,99.90
2017-09-20T01:40:55.932Z,99.90
2017-09-20T01:43:24.220Z,99.90
2017-09-20T01:45:52.530Z,99.90
2017-09-20T01:48:21.621Z,99.90
2017-09-20T01:50:49.918Z,99.90
2017-09-20T01:53:18.222Z,99.90
2017-09-20T01:55:47.293Z,99.90
2017-09-20T01:58:15.755Z,99.90
2017-09-20T02:00:44.081Z,99.90
2017-09-20T02:03:12.729Z,99.90
2017-09-20T02:05:41.050Z,99.90
2017-09-20T02:08:09.348Z,99.90
2017-09-20T02:10:37.651Z,99.90
2017-09-20T02:13:05.967Z,99.90
2017-09-20T02:15:35.024Z,99.90
2017-09-20T02:18:03.319Z,99.90
2017-09-20T02:20:31.638Z,99.90
2017-09-20T02:23:00.736Z,99.90
2017-09-20T02:25:29.033Z,99.90
2017-09-20T02:27:58.098Z,99.90
2017-09-20T02:30:26.387Z,99.90
2017-09-20T02:32:54.680Z,99.90
2017-09-20T02:35:22.996Z,99.90
2017-09-20T02:37:51.298Z,99.90
2017-09-20T02:40:20.400Z,99.90
2017-09-20T02:42:48.724Z,99.90
2017-09-20T02:45:17.794Z,99.90
2017-09-20T02:47:46.128Z,99.90
2017-09-20T02:50:15.291Z,99.90
2017-09-20T02:52:44.629Z,99.90
2017-09-20T02:55:13.724Z,99.90
2017-09-20T02:57:42.843Z,99.90
2017-09-20T03:00:11.163Z,99.90
2017-09-20T03:02:39.454Z,99.90
2017-09-20T03:05:07.746Z,99.90
2017-09-20T03:07:36.194Z,99.90
2017-09-20T03:10:05.681Z,99.90
2017-09-20T03:12:35.588Z,99.90
2017-09-20T03:15:03.906Z,99.90
2017-09-20T03:17:32.261Z,99.90
2017-09-20T03:20:00.579Z,99.90
2017-09-20T03:22:28.880Z,99.90
2017-09-20T03:24:57.170Z,99.90
2017-09-20T03:27:25.653Z,99.90
2017-09-20T03:29:54.039Z,99.90
2017-09-20T03:32:22.343Z,99.90
2017-09-20T03:34:52.598Z,99.90
2017-09-20T03:37:20.983Z,99.90
2017-09-20T03:39:50.057Z,99.90
2017-09-20T03:42:18.391Z,99.90
2017-09-20T03:44:47.459Z,99.90
2017-09-20T03:47:15.765Z,99.90
2017-09-20T03:49:44.064Z,99.90
2017-09-20T03:52:13.167Z,99.90
2017-09-20T03:54:41.494Z,99.90
2017-09-20T03:57:09.799Z,99.90
2017-09-20T03:59:38.083Z,99.90
2017-09-20T04:02:06.376Z,99.90
2017-09-20T04:04:34.691Z,99.90
2017-09-20T04:07:03.006Z,99.90
2017-09-20T04:09:32.064Z,99.90
2017-09-20T04:12:00.385Z,99.90
2017-09-20T04:14:28.678Z,99.90
2017-09-20T04:16:56.967Z,99.90
2017-09-20T04:19:25.255Z,99.90
2017-09-20T04:21:54.315Z,99.90
2017-09-20T04:24:22.600Z,99.90
2017-09-20T04:26:50.935Z,99.90
2017-09-20T04:29:19.223Z,99.90
2017-09-20T04:31:47.523Z,99.90
2017-09-20T04:34:15.888Z,99.90
2017-09-20T04:36:44.225Z,99.90
2017-09-20T04:39:12.510Z,99.90
2017-09-20T04:41:41.600Z,99.90
2017-09-20T04:44:09.888Z,99.90
2017-09-20T04:46:38.179Z,99.90
2017-09-20T04:49:06.467Z,99.90
2017-09-20T04:51:35.524Z,99.90
2017-09-20T04:54:03.846Z,99.90
2017-09-20T04:56:32.141Z,99.90
2017-09-20T04:59:00.430Z,99.90
2017-09-20T05:01:28.720Z,99.90
2017-09-20T05:03:57.138Z,99.90
2017-09-20T05:06:26.211Z,99.90
2017-09-20T05:08:54.581Z,99.90
2017-09-20T05:11:22.908Z,99.90
2017-09-20T05:13:52.052Z,99.90
2017-09-20T05:16:20.368Z,99.90
2017-09-20T05:18:48.688Z,99.90
2017-09-20T05:21:17.022Z,99.90
2017-09-20T05:23:45.338Z,99.90
2017-09-20T05:26:13.656Z,99.90
2017-09-20T05:28:41.980Z,99.90
2017-09-20T05:31:11.058Z,99.90
2017-09-20T05:33:39.338Z,99.90
2017-09-20T05:36:07.667Z,99.90
2017-09-20T05:38:35.950Z,99.90
2017-09-20T05:41:04.265Z,99.90
2017-09-20T05:43:32.547Z,99.90
2017-09-20T05:46:00.983Z,99.90
2017-09-20T05:48:29.294Z,99.90
2017-09-20T05:50:58.359Z,99.90
2017-09-20T05:53:26.681Z,99.90
2017-09-20T05:55:54.976Z,99.90
2017-09-20T05:58:24.307Z,99.90
2017-09-20T06:00:52.735Z,99.90
2017-09-20T06:03:21.044Z,99.90
2017-09-20T06:05:49.356Z,99.70
2017-09-20T06:08:17.883Z,99.90
2017-09-20T06:10:46.191Z,99.90
2017-09-20T06:13:14.523Z,99.90
2017-09-20T06:15:42.810Z,99.90
2017-09-20T06:18:11.100Z,99.90
2017-09-20T06:20:39.387Z,99.90
2017-09-20T06:23:07.678Z,99.90
2017-09-20T06:25:35.967Z,99.90
2017-09-20T06:28:04.259Z,99.90
2017-09-20T06:30:32.548Z,99.90
2017-09-20T06:33:00.837Z,99.90
2017-09-20T06:35:29.155Z,99.90
2017-09-20T06:37:57.442Z,99.90
2017-09-20T06:40:25.733Z,99.90
2017-09-20T06:42:54.022Z,99.90
2017-09-20T06:45:22.356Z,99.90
2017-09-20T06:47:50.671Z,99.90
2017-09-20T06:50:18.992Z,99.90
2017-09-20T06:52:47.337Z,99.90
2017-09-20T06:55:15.638Z,99.90
2017-09-20T06:57:44.927Z,98.90
2017-09-20T07:00:13.210Z,98.90
2017-09-20T07:02:41.499Z,97.90
2017-09-20T07:05:09.788Z,98.40
2017-09-20T07:07:38.077Z,98.40
2017-09-20T07:10:06.392Z,98.70
2017-09-20T07:12:34.711Z,97.30
2017-09-20T07:15:03.002Z,97.30
2017-09-20T07:17:31.283Z,96.90
2017-09-20T07:20:00.361Z,96.70
2017-09-20T07:22:28.646Z,96.60
2017-09-20T07:24:56.929Z,97.10
2017-09-20T07:27:25.222Z,97.20
2017-09-20T07:29:53.826Z,97.30
2017-09-20T07:32:22.158Z,98.20
2017-09-20T07:34:50.447Z,97.30
2017-09-20T07:37:18.748Z,97.80
2017-09-20T07:39:47.049Z,97.60
2017-09-20T07:42:15.363Z,97.30
2017-09-20T07:44:44.452Z,96.40
2017-09-20T07:47:12.726Z,96.40
2017-09-20T07:49:41.053Z,95.50
2017-09-20T07:52:09.370Z,96.40
2017-09-20T07:54:38.436Z,95.70
2017-09-20T07:57:06.746Z,95.70
2017-09-20T07:59:35.054Z,95.60
2017-09-20T08:02:04.143Z,94.70
2017-09-20T08:04:32.462Z,94.70
2017-09-20T08:07:00.752Z,94.60
2017-09-20T08:09:29.035Z,94.10
2017-09-20T08:11:57.318Z,94.20
2017-09-20T08:14:26.367Z,96.10
2017-09-20T08:16:54.660Z,96.00
2017-09-20T08:19:22.939Z,94.20
2017-09-20T08:21:51.230Z,93.60
2017-09-20T08:24:19.527Z,93.50
2017-09-20T08:26:48.122Z,94.40
2017-09-20T08:29:16.414Z,93.40
2017-09-20T08:31:44.731Z,93.00
2017-09-20T08:34:13.042Z,94.00
2017-09-20T08:36:42.119Z,93.80
2017-09-20T08:39:10.399Z,93.80
2017-09-20T08:41:38.687Z,92.50
2017-09-20T08:44:06.987Z,92.10
2017-09-20T08:46:35.308Z,92.30
2017-09-20T08:49:04.380Z,91.70
2017-09-20T08:51:32.671Z,91.40
2017-09-20T08:54:00.976Z,91.30
2017-09-20T08:56:30.048Z,91.70
2017-09-20T08:58:58.373Z,91.70
2017-09-20T09:01:27.653Z,91.20
2017-09-20T09:03:55.962Z,91.20
2017-09-20T09:06:24.243Z,88.90
2017-09-20T09:08:52.531Z,89.70
2017-09-20T09:11:21.031Z,86.40
2017-09-20T09:13:49.342Z,87.80
2017-09-20T09:16:18.422Z,88.20
2017-09-20T09:18:46.771Z,88.20
2017-09-20T09:21:15.123Z,87.60
2017-09-20T09:23:44.184Z,91.40
2017-09-20T09:26:13.294Z,91.30
2017-09-20T09:28:41.706Z,91.30
2017-09-20T09:31:09.995Z,91.30
2017-09-20T09:33:38.307Z,91.20
2017-09-20T09:36:07.366Z,89.20
2017-09-20T09:38:35.659Z,89.20
2017-09-20T09:41:04.091Z,90.50
2017-09-20T09:43:33.151Z,89.00
2017-09-20T09:46:01.440Z,89.10
2017-09-20T09:48:29.734Z,88.60
2017-09-20T09:50:58.073Z,89.50
2017-09-20T09:53:26.448Z,88.70
2017-09-20T09:55:55.627Z,84.10
2017-09-20T09:58:24.012Z,83.90
2017-09-20T10:00:52.728Z,85.00
2017-09-20T10:03:21.131Z,84.00
2017-09-20T10:05:49.522Z,79.30
2017-09-20T10:08:18.700Z,79.40
2017-09-20T10:10:47.123Z,79.40
2017-09-20T10:13:15.542Z,82.00
2017-09-20T10:15:43.839Z,80.20
2017-09-20T10:18:12.139Z,78.10
2017-09-20T10:20:40.424Z,79.60
2017-09-20T10:23:09.472Z,80.20
2017-09-20T10:25:37.767Z,80.30
2017-09-20T10:28:06.056Z,81.70
2017-09-20T10:30:34.363Z,77.30
2017-09-20T10:33:02.660Z,79.80
2017-09-20T10:35:31.712Z,79.40
2017-09-20T10:38:00.047Z,79.20
2017-09-20T10:40:28.335Z,78.40
2017-09-20T10:42:56.662Z,79.20
2017-09-20T10:45:24.956Z,81.70
2017-09-20T10:47:53.235Z,83.80
2017-09-20T10:50:21.522Z,80.70
2017-09-20T10:52:49.811Z,77.90
2017-09-20T10:55:18.168Z,79.20
2017-09-20T10:57:46.503Z,76.00
2017-09-20T11:00:14.943Z,79.10
2017-09-20T11:02:43.252Z,77.90
2017-09-20T11:05:11.546Z,77.50
2017-09-20T11:07:40.602Z,77.80
2017-09-20T11:10:08.883Z,77.70
2017-09-20T11:12:37.195Z,78.10
2017-09-20T11:15:05.498Z,79.00
2017-09-20T11:17:33.875Z,76.60
2017-09-20T11:20:02.169Z,77.50
2017-09-20T11:22:30.467Z,78.00
2017-09-20T11:24:58.763Z,78.50
2017-09-20T11:27:27.051Z,80.10
2017-09-20T11:29:55.371Z,79.50
2017-09-20T11:32:23.659Z,78.70
2017-09-20T11:34:51.956Z,79.30
2017-09-20T11:37:20.291Z,81.40
2017-09-20T11:39:48.705Z,84.90
2017-09-20T11:42:17.841Z,93.90
2017-09-20T11:44:46.199Z,93.90
2017-09-20T11:47:15.299Z,92.20
2017-09-20T11:49:44.422Z,92.40
2017-09-20T11:52:12.743Z,92.40
2017-09-20T11:54:41.031Z,92.10
2017-09-20T11:57:09.316Z,90.10
2017-09-20T11:59:37.672Z,90.80
2017-09-20T12:02:05.954Z,91.10
2017-09-20T12:04:34.279Z,91.70
2017-09-20T12:07:02.672Z,89.60
2017-09-20T12:09:30.958Z,87.70
2017-09-20T12:11:59.308Z,84.40
2017-09-20T12:14:27.588Z,87.30
2017-09-20T12:16:56.079Z,86.60
2017-09-20T12:19:24.391Z,86.90
2017-09-20T12:21:52.803Z,88.10
2017-09-20T12:24:21.867Z,90.10
2017-09-20T12:26:50.218Z,90.00
2017-09-20T12:29:18.755Z,90.10
2017-09-20T12:31:47.177Z,88.30
2017-09-20T12:34:15.560Z,89.20
2017-09-20T12:36:43.959Z,87.80
2017-09-20T12:39:13.060Z,87.10
2017-09-20T12:41:42.115Z,86.80
2017-09-20T12:44:10.457Z,86.90
2017-09-20T12:46:38.741Z,85.70
2017-09-20T12:49:07.787Z,82.70
2017-09-20T12:51:36.142Z,82.70
2017-09-20T12:54:04.433Z,79.60
2017-09-20T12:56:33.538Z,78.60
2017-09-20T12:59:01.850Z,78.30
2017-09-20T13:01:30.141Z,76.80
2017-09-20T13:03:58.623Z,76.30
2017-09-20T13:06:26.955Z,74.80
2017-09-20T13:08:55.247Z,75.70
2017-09-20T13:11:23.528Z,76.80
2017-09-20T13:13:51.935Z,74.80
2017-09-20T13:16:21.320Z,75.20
2017-09-20T13:18:49.704Z,75.30
2017-09-20T13:21:18.028Z,73.90
2017-09-20T13:23:46.429Z,77.80
2017-09-20T13:26:14.984Z,78.60
2017-09-20T13:28:43.326Z,77.90
2017-09-20T13:31:11.722Z,77.20
2017-09-20T13:33:40.929Z,78.90
2017-09-20T13:36:09.214Z,79.70
2017-09-20T13:38:37.496Z,79.80
2017-09-20T13:41:05.817Z,81.80
2017-09-20T13:43:35.125Z,80.20
2017-09-20T13:46:04.568Z,79.20
2017-09-20T13:48:34.228Z,79.20
2017-09-20T13:51:02.813Z,77.10
2017-09-20T13:53:31.134Z,77.10
2017-09-20T13:55:59.439Z,74.50
2017-09-20T13:58:28.490Z,73.30
2017-09-20T14:00:57.015Z,73.30
2017-09-20T14:03:25.347Z,72.20
2017-09-20T14:05:54.403Z,70.30
2017-09-20T14:08:22.786Z,70.30
2017-09-20T14:10:51.147Z,72.00
2017-09-20T14:13:19.799Z,70.30
2017-09-20T14:15:48.098Z,70.70
2017-09-20T14:18:17.234Z,68.80
2017-09-20T14:20:45.567Z,69.50
2017-09-20T14:23:13.957Z,70.00
2017-09-20T14:25:42.250Z,72.60
2017-09-20T14:28:10.558Z,74.00
2017-09-20T14:30:39.614Z,71.40
2017-09-20T14:33:07.905Z,71.00
2017-09-20T14:35:36.240Z,71.10
2017-09-20T14:38:04.574Z,72.80
2017-09-20T14:40:32.862Z,74.10
2017-09-20T14:43:01.193Z,75.40
2017-09-20T14:45:29.476Z,72.60
2017-09-20T14:47:57.800Z,74.70
2017-09-20T14:50:26.091Z,74.90
2017-09-20T14:52:55.145Z,75.50
2017-09-20T14:55:23.440Z,75.40
2017-09-20T14:57:51.723Z,74.00
2017-09-20T15:00:20.073Z,73.40
2017-09-20T15:02:48.439Z,72.10
2017-09-20T15:05:16.785Z,71.80
2017-09-20T15:07:45.151Z,73.40
2017-09-20T15:10:13.467Z,75.70
2017-09-20T15:12:41.795Z,74.50
2017-09-20T15:15:10.088Z,74.90
2017-09-20T15:17:38.415Z,76.30
2017-09-20T15:20:06.707Z,76.10
2017-09-20T15:22:34.998Z,76.40
2017-09-20T15:25:03.279Z,76.20
2017-09-20T15:27:31.574Z,76.40
2017-09-20T15:29:59.898Z,74.30
2017-09-20T15:32:28.220Z,74.80
2017-09-20T15:34:57.404Z,72.20
2017-09-20T15:37:25.698Z,72.20
2017-09-20T15:39:53.990Z,73.60
2017-09-20T15:42:22.295Z,74.10
2017-09-20T15:44:51.377Z,73.70
2017-09-20T15:47:19.704Z,73.70
2017-09-20T15:52:23.052Z,74.80
2017-09-20T15:54:51.413Z,76.90
2017-09-20T15:57:19.741Z,78.00
2017-09-20T15:59:48.050Z,80.00
2017-09-20T16:02:16.471Z,81.10
2017-09-20T16:04:44.823Z,82.60
2017-09-20T16:07:13.124Z,83.60
2017-09-20T16:09:41.417Z,84.60
2017-09-20T16:12:09.715Z,85.20
2017-09-20T16:14:38.032Z,84.50
2017-09-20T16:17:07.105Z,87.00
2017-09-20T16:19:35.407Z,87.00
2017-09-20T16:22:03.830Z,87.40
2017-09-20T16:24:32.151Z,88.00
2017-09-20T16:27:00.450Z,88.50
2017-09-20T16:29:28.756Z,88.20
2017-09-20T16:31:57.094Z,88.50
2017-09-20T16:34:25.460Z,89.60
2017-09-20T16:36:53.751Z,90.20
2017-09-20T16:39:22.056Z,90.30
2017-09-20T16:41:51.123Z,90.90
2017-09-20T16:44:19.423Z,90.90
2017-09-20T16:46:48.711Z,91.20
2017-09-20T16:49:17.350Z,91.00
2017-09-20T16:51:46.113Z,91.30
2017-09-20T16:54:14.478Z,91.40
2017-09-20T16:56:42.801Z,91.80
2017-09-20T16:59:11.102Z,92.20
2017-09-20T17:01:39.409Z,92.60
2017-09-20T17:04:07.702Z,92.90
2017-09-20T17:06:36.767Z,94.00
2017-09-20T17:09:05.091Z,94.00
2017-09-20T17:11:33.428Z,94.30
2017-09-20T17:14:01.731Z,94.50
2017-09-20T17:16:30.019Z,95.00
2017-09-20T17:18:58.302Z,94.90
2017-09-20T17:21:26.633Z,95.00
2017-09-20T17:23:54.916Z,95.20
2017-09-20T17:26:23.204Z,95.50
2017-09-20T17:28:51.494Z,95.90
2017-09-20T17:31:19.868Z,96.10
2017-09-20T17:33:49.070Z,97.00
2017-09-20T17:36:17.476Z,96.90
2017-09-20T17:38:46.056Z,97.30
2017-09-20T17:41:15.197Z,97.70
2017-09-20T17:43:45.553Z,98.20
2017-09-20T17:46:14.764Z,98.60
2017-09-20T17:48:43.070Z,98.60
2017-09-20T17:51:11.358Z,98.60
2017-09-20T17:53:39.687Z,98.60
2017-09-20T17:56:07.972Z,99.00
2017-09-20T17:58:36.294Z,99.10
2017-09-20T18:01:05.372Z,99.50
2017-09-20T18:03:33.672Z,99.50
2017-09-20T18:06:02.224Z,99.60
2017-09-20T18:08:30.519Z,99.90
2017-09-20T18:10:58.939Z,99.90
2017-09-20T18:13:27.227Z,99.90
2017-09-20T18:15:55.528Z,99.90
2017-09-20T18:18:23.807Z,99.90
2017-09-20T18:20:52.145Z,99.90
2017-09-20T18:23:20.474Z,99.90
2017-09-20T18:25:48.831Z,99.90
2017-09-20T18:28:17.203Z,99.90
2017-09-20T18:30:45.651Z,99.90
2017-09-20T18:33:14.138Z,99.90
2017-09-20T18:35:42.455Z,99.90
2017-09-20T18:38:10.870Z,99.90
2017-09-20T18:40:39.929Z,99.90
2017-09-20T18:43:08.228Z,99.90
2017-09-20T18:45:36.516Z,99.90
2017-09-20T18:48:04.811Z,99.90
2017-09-20T18:50:33.148Z,99.90
2017-09-20T18:53:01.435Z,99.90
2017-09-20T18:58:27.099Z,99.90
2017-09-20T19:00:55.435Z,99.90
2017-09-20T19:03:23.748Z,99.90
2017-09-20T19:05:52.036Z,99.90
2017-09-20T19:08:20.395Z,99.90
2017-09-20T19:10:48.823Z,99.90
2017-09-20T19:13:17.912Z,99.90
2017-09-20T19:15:46.282Z,99.90
2017-09-20T19:18:14.690Z,99.90
2017-09-20T19:20:43.143Z,99.90
2017-09-20T19:23:11.484Z,99.90
2017-09-20T19:25:39.790Z,99.90
2017-09-20T19:28:08.890Z,99.90
2017-09-20T19:30:37.206Z,99.90
2017-09-20T19:33:05.500Z,99.90
2017-09-20T19:35:33.831Z,99.90
2017-09-20T19:38:02.140Z,99.90
2017-09-20T19:40:30.493Z,99.90
2017-09-20T19:42:58.803Z,99.90
2017-09-20T19:45:27.115Z,99.90
2017-09-20T19:47:55.438Z,99.90
2017-09-20T19:50:23.744Z,99.90
2017-09-20T19:52:52.320Z,99.90
2017-09-20T19:55:20.789Z,99.90
2017-09-20T19:57:49.845Z,99.90
2017-09-20T20:00:18.192Z,99.90
2017-09-20T20:02:46.614Z,99.90
2017-09-20T20:05:14.960Z,99.90
2017-09-20T20:07:44.027Z,99.90
2017-09-20T20:10:13.094Z,99.90
2017-09-20T20:12:42.148Z,99.90
2017-09-20T20:15:10.495Z,99.90
2017-09-20T20:17:38.819Z,99.90
2017-09-20T20:20:07.120Z,99.90
2017-09-20T20:22:35.494Z,99.90
2017-09-20T20:25:03.791Z,99.90
2017-09-20T20:27:32.090Z,99.90
2017-09-20T20:30:00.416Z,99.90
2017-09-20T20:32:29.508Z,99.90
2017-09-20T20:34:57.792Z,99.90
2017-09-20T20:37:26.112Z,99.90
2017-09-20T20:39:55.179Z,99.90
2017-09-20T20:42:23.464Z,99.90
2017-09-20T20:44:51.773Z,99.90
2017-09-20T20:47:20.135Z,99.90
2017-09-20T20:49:48.533Z,99.90
2017-09-20T20:52:17.690Z,99.90
2017-09-20T20:54:46.837Z,99.90
2017-09-20T20:57:15.278Z,99.90
2017-09-20T20:59:44.384Z,99.90
2017-09-20T21:02:12.726Z,99.90
2017-09-20T21:04:41.010Z,99.90
2017-09-20T21:07:09.303Z,99.90
2017-09-20T21:09:37.679Z,99.90
2017-09-20T21:12:05.964Z,99.90
2017-09-20T21:14:34.319Z,99.90
2017-09-20T21:17:03.388Z,99.90
2017-09-20T21:19:31.671Z,99.90
2017-09-20T21:21:59.996Z,99.90
2017-09-20T21:24:28.287Z,99.90
2017-09-20T21:26:56.707Z,99.90
2017-09-20T21:29:24.996Z,99.90
2017-09-20T21:31:53.303Z,99.90
2017-09-20T21:34:21.606Z,99.90
2017-09-20T21:36:49.919Z,99.90
2017-09-20T21:39:18.248Z,99.90
2017-09-20T21:41:46.554Z,99.90
2017-09-20T21:44:15.634Z,99.90
2017-09-20T21:46:44.765Z,99.90
2017-09-20T21:49:13.074Z,99.90
2017-09-20T21:51:41.382Z,99.90
2017-09-20T21:54:09.679Z,99.90
2017-09-20T21:56:37.996Z,99.90
2017-09-20T21:59:07.326Z,99.90
2017-09-20T22:01:35.656Z,99.90
2017-09-20T22:04:03.936Z,99.90
2017-09-20T22:06:32.228Z,99.90
2017-09-20T22:09:00.511Z,99.90
2017-09-20T22:11:28.933Z,99.90
2017-09-20T22:13:57.219Z,99.90
2017-09-20T22:16:37.499Z,99.90
2017-09-20T22:19:23.602Z,99.90
2017-09-20T22:22:10.009Z,99.90
2017-09-20T22:24:56.782Z,99.90
2017-09-20T22:27:30.982Z,99.90
2017-09-20T22:29:59.030Z,99.90
2017-09-20T22:32:27.331Z,99.90
2017-09-20T22:34:55.618Z,99.90
2017-09-20T22:37:23.932Z,99.90
2017-09-20T22:39:52.983Z,99.90
2017-09-20T22:42:21.301Z,99.90
2017-09-20T22:44:49.578Z,99.90
2017-09-20T22:47:17.880Z,99.90
2017-09-20T22:49:46.231Z,99.90
2017-09-20T22:52:14.547Z,99.90
2017-09-20T22:54:42.830Z,99.90
2017-09-20T22:57:11.133Z,99.90
2017-09-20T22:59:39.467Z,99.90
2017-09-20T23:02:08.519Z,99.90
2017-09-20T23:04:36.839Z,99.90
2017-09-20T23:07:05.133Z,99.90
2017-09-20T23:09:33.422Z,99.90
2017-09-20T23:12:01.823Z,99.90
2017-09-20T23:14:30.164Z,99.90
2017-09-20T23:16:58.464Z,99.90
2017-09-20T23:19:26.773Z,99.90
2017-09-20T23:21:56.597Z,99.90
2017-09-20T23:24:24.895Z,99.90
2017-09-20T23:26:54.679Z,99.90
2017-09-20T23:29:23.250Z,99.90
2017-09-20T23:31:51.543Z,99.90
2017-09-20T23:34:19.863Z,99.90
2017-09-20T23:36:48.171Z,99.90
2017-09-20T23:39:16.477Z,99.90
2017-09-20T23:41:44.774Z,99.90
2017-09-20T23:44:13.831Z,99.90
2017-09-20T23:46:43.782Z,99.90
2017-09-20T23:49:12.088Z,99.90
2017-09-20T23:51:40.371Z,99.90
2017-09-20T23:54:08.683Z,99.90
2017-09-20T23:56:36.982Z,99.90
2017-09-20T23:59:05.303Z,99.90
